Time;durP1;ratioP1;P1;durP2;ratioP2;P2;SDS_P1;SDS_P2;PMS_P1;PMS_P2;Temp;Humidity;BMP_temperature;BMP_pressure;BME280_temperature;BME280_humidity;BME280_pressure;Samples;Min_cycle;Max_cycle;Signal;HPM_P1;HPM_P2
2021/03/17 00:00:28;;;;;;;23.52;17.17;;;;;;;4.23;64.04;93898.78;5110544;28;20259;-69
2021/03/17 00:03:13;;;;;;;22.45;16.13;;;;;;;4.17;64.46;93897.13;5111023;28;20587;-67
2021/03/17 00:05:58;;;;;;;22.83;16.50;;;;;;;4.16;63.91;93907.75;5110432;28;20233;-65
2021/03/17 00:08:45;;;;;;;22.60;17.02;;;;;;;4.21;64.02;93890.44;5110847;28;20244;-66
2021/03/17 00:11:30;;;;;;;22.67;17.35;;;;;;;4.28;63.79;93888.47;5110936;28;20197;-65
2021/03/17 00:14:18;;;;;;;24.48;16.30;;;;;;;4.09;64.45;93889.75;5110971;28;20256;-67
2021/03/17 00:17:04;;;;;;;24.20;16.58;;;;;;;4.17;64.25;93898.94;5110947;28;20213;-64
2021/03/17 00:19:50;;;;;;;26.15;16.30;;;;;;;4.16;64.18;93884.41;5110186;28;20254;-64
2021/03/17 00:22:35;;;;;;;21.40;16.35;;;;;;;4.24;63.93;93884.00;5111059;28;20683;-67
2021/03/17 00:25:22;;;;;;;22.25;16.75;;;;;;;4.11;64.35;93893.69;5110111;28;20205;-65
2021/03/17 00:28:08;;;;;;;22.05;16.77;;;;;;;4.10;64.36;93880.97;5110605;28;20251;-65
2021/03/17 00:30:53;;;;;;;22.35;17.70;;;;;;;4.30;64.47;93880.44;5109996;28;20228;-66
2021/03/17 00:33:39;;;;;;;21.88;17.58;;;;;;;4.13;64.74;93885.66;5110393;28;20312;-66
2021/03/17 00:36:24;;;;;;;22.38;16.80;;;;;;;4.18;65.08;93872.78;5110282;28;20232;-66
2021/03/17 00:39:09;;;;;;;21.10;16.30;;;;;;;4.15;64.69;93865.47;5110448;28;20216;-63
2021/03/17 00:41:54;;;;;;;21.02;15.43;;;;;;;4.09;65.16;93874.22;5110496;28;20248;-66
2021/03/17 00:44:40;;;;;;;20.42;14.45;;;;;;;4.11;65.27;93872.16;5109985;28;20367;-65
2021/03/17 00:47:27;;;;;;;20.75;15.27;;;;;;;3.96;65.25;93874.56;5110544;28;20193;-63
2021/03/17 00:49:54;;;;;;;20.17;13.88;;;;;;;4.08;65.34;93864.88;5108833;28;20711;-65
2021/03/17 00:52:22;;;;;;;22.10;15.00;;;;;;;4.18;64.99;93870.19;5110460;28;20781;-64
2021/03/17 00:55:08;;;;;;;19.60;13.70;;;;;;;3.83;65.35;93880.09;5109653;28;20194;-64
2021/03/17 00:57:53;;;;;;;18.08;10.35;;;;;;;3.83;65.37;93864.56;5112710;28;20208;-68
2021/03/17 01:00:21;;;;;;;20.67;14.90;;;;;;;3.88;65.68;93874.97;5115139;28;20617;-69
2021/03/17 01:02:49;;;;;;;17.60;12.98;;;;;;;3.91;65.60;93861.53;5111898;28;20194;-64
2021/03/17 01:05:16;;;;;;;18.83;11.82;;;;;;;3.92;65.20;93869.06;5113590;28;20213;-64
2021/03/17 01:07:43;;;;;;;18.33;13.73;;;;;;;4.12;64.74;93871.16;5113686;28;20230;-66
2021/03/17 01:10:15;;;;;;;17.67;13.18;;;;;;;4.10;64.21;93865.44;5113378;28;20304;-66
2021/03/17 01:12:41;;;;;;;18.60;13.68;;;;;;;3.91;64.63;93867.50;5113960;28;20222;-65
2021/03/17 01:15:15;;;;;;;19.77;13.70;;;;;;;4.08;64.80;93864.88;5113479;28;20688;-67
2021/03/17 01:17:41;;;;;;;17.77;12.73;;;;;;;4.04;64.82;93871.56;5113744;28;20179;-68
2021/03/17 01:20:08;;;;;;;17.27;13.23;;;;;;;3.96;64.85;93859.00;5113302;28;20676;-65
2021/03/17 01:22:35;;;;;;;16.20;12.80;;;;;;;4.07;64.08;93856.31;5114196;28;20251;-69
2021/03/17 01:25:08;;;;;;;16.88;12.88;;;;;;;4.13;63.72;93854.56;5113075;28;20214;-72
2021/03/17 01:27:34;;;;;;;14.38;10.27;;;;;;;3.75;64.34;93833.88;5113460;28;20190;-67
2021/03/17 01:30:01;;;;;;;15.48;11.00;;;;;;;3.73;64.48;93838.50;5113162;28;20226;-66
2021/03/17 01:32:28;;;;;;;17.90;12.82;;;;;;;3.99;63.65;93867.09;5114027;28;20656;-64
2021/03/17 01:34:54;;;;;;;15.98;11.57;;;;;;;3.87;63.52;93858.63;5112908;28;20206;-65
2021/03/17 01:37:21;;;;;;;18.17;10.95;;;;;;;4.00;63.18;93849.72;5112987;28;20273;-65
2021/03/17 01:39:47;;;;;;;16.35;10.73;;;;;;;4.02;63.13;93842.50;5112867;28;20208;-69
2021/03/17 01:42:14;;;;;;;13.98;11.10;;;;;;;4.22;62.34;93850.53;5113242;28;20194;-66
2021/03/17 01:44:46;;;;;;;15.13;11.57;;;;;;;4.26;62.20;93840.47;5112899;28;20183;-66
2021/03/17 01:47:13;;;;;;;17.15;11.90;;;;;;;4.06;61.96;93833.22;5113191;28;20194;-64
2021/03/17 01:49:39;;;;;;;15.82;11.52;;;;;;;4.11;61.71;93851.44;5112591;28;20715;-62
2021/03/17 01:52:06;;;;;;;16.42;11.50;;;;;;;4.04;62.08;93835.28;5113255;28;20195;-66
2021/03/17 01:54:33;;;;;;;14.55;11.20;;;;;;;4.35;60.91;93846.78;5112679;28;20225;-65
2021/03/17 01:56:59;;;;;;;15.98;10.48;;;;;;;4.07;61.19;93850.34;5112776;28;20251;-67
2021/03/17 01:59:26;;;;;;;14.82;11.10;;;;;;;4.18;61.06;93844.25;5112955;28;20194;-67
2021/03/17 02:01:53;;;;;;;15.63;11.20;;;;;;;4.14;61.05;93845.78;5113069;28;20557;-64
2021/03/17 02:04:19;;;;;;;13.98;10.18;;;;;;;3.99;61.46;93843.78;5113062;28;20596;-64
2021/03/17 02:06:46;;;;;;;14.73;10.07;;;;;;;3.83;61.84;93849.00;5111704;28;20231;-67
2021/03/17 02:09:13;;;;;;;15.63;10.30;;;;;;;3.88;61.61;93851.66;5113065;28;20245;-65
2021/03/17 02:11:42;;;;;;;15.20;11.27;;;;;;;3.95;61.33;93852.25;5112079;28;20274;-65
2021/03/17 02:14:51;;;;;;;14.95;9.90;;;;;;;3.94;61.17;93861.06;5112569;28;20273;-68
2021/03/17 02:17:25;;;;;;;14.55;10.70;;;;;;;4.01;61.31;93861.69;5049806;28;20203;-64
2021/03/17 02:20:23;;;;;;;15.55;11.07;;;;;;;4.10;61.13;93866.22;5105192;28;20209;-65
2021/03/17 02:23:03;;;;;;;15.15;10.70;;;;;;;3.93;61.54;93859.50;5112782;28;20282;-66
2021/03/17 02:25:57;;;;;;;12.20;8.98;;;;;;;3.81;61.67;93866.59;5112003;28;20226;-66
2021/03/17 02:29:00;;;;;;;14.30;10.30;;;;;;;3.79;61.97;93869.44;5119292;28;20246;-70
2021/03/17 02:31:48;;;;;;;14.88;10.15;;;;;;;3.77;61.81;93865.50;5101128;28;20194;-66
2021/03/17 02:34:21;;;;;;;13.30;9.77;;;;;;;3.71;62.17;93869.03;5112393;28;20330;-65
2021/03/17 02:36:58;;;;;;;13.60;11.10;;;;;;;4.00;61.48;93886.00;5111674;28;20271;-64
2021/03/17 02:39:27;;;;;;;12.77;9.40;;;;;;;3.72;61.81;93878.38;5110543;28;20286;-67
2021/03/17 02:42:04;;;;;;;13.93;9.65;;;;;;;3.55;62.35;93878.41;5112222;28;20202;-65
2021/03/17 02:44:32;;;;;;;13.85;9.40;;;;;;;3.75;61.90;93878.69;5111536;28;20663;-67
2021/03/17 02:47:00;;;;;;;15.07;10.63;;;;;;;3.94;61.52;93876.63;5111636;28;20224;-67
2021/03/17 02:49:35;;;;;;;14.75;10.15;;;;;;;3.75;61.51;93883.09;5111464;28;20226;-67
2021/03/17 02:52:04;;;;;;;13.65;10.18;;;;;;;3.89;61.34;93871.34;5111965;28;20185;-68
2021/03/17 02:54:33;;;;;;;13.32;9.73;;;;;;;3.89;61.42;93876.53;5111337;27;20205;-67
2021/03/17 02:57:12;;;;;;;13.57;10.45;;;;;;;3.81;61.33;93880.31;5111801;28;20191;-68
2021/03/17 02:59:40;;;;;;;13.63;8.98;;;;;;;3.74;61.41;93856.38;5111469;28;20223;-67
2021/03/17 03:02:11;;;;;;;13.82;10.57;;;;;;;3.64;61.92;93876.19;5111860;28;20695;-69
2021/03/17 03:04:41;;;;;;;13.90;10.60;;;;;;;4.00;60.83;93876.44;5111235;28;20201;-65
2021/03/17 03:07:09;;;;;;;16.63;10.93;;;;;;;4.01;60.72;93861.69;5111473;28;20230;-68
2021/03/17 03:09:37;;;;;;;13.90;10.48;;;;;;;3.92;60.36;93889.78;5110851;28;20214;-65
2021/03/17 03:12:04;;;;;;;13.80;10.63;;;;;;;3.77;60.67;93881.03;5111683;28;20277;-68
2021/03/17 03:14:30;;;;;;;13.65;8.55;;;;;;;3.95;60.45;93878.19;5111598;28;20684;-67
2021/03/17 03:16:58;;;;;;;15.90;10.60;;;;;;;3.87;60.18;93892.31;5111565;28;20222;-66
2021/03/17 03:19:29;;;;;;;14.00;10.93;;;;;;;3.87;60.44;93886.34;5111226;28;20186;-68
2021/03/17 03:21:57;;;;;;;14.57;10.68;;;;;;;3.75;60.45;93893.44;5111357;28;20194;-66
2021/03/17 03:24:24;;;;;;;15.00;12.02;;;;;;;3.97;60.40;93886.50;5111178;28;20187;-64
2021/03/17 03:26:56;;;;;;;14.55;9.82;;;;;;;3.77;60.59;93881.84;5110827;28;20289;-65
2021/03/17 03:29:27;;;;;;;15.88;11.70;;;;;;;3.73;60.67;93879.94;5111393;28;20206;-66
2021/03/17 03:31:55;;;;;;;13.23;10.52;;;;;;;3.89;60.12;93879.91;5111688;28;20202;-65
2021/03/17 03:34:21;;;;;;;12.00;9.57;;;;;;;3.82;59.74;93873.34;5110978;28;20194;-66
2021/03/17 03:36:49;;;;;;;10.75;8.52;;;;;;;3.80;60.06;93877.97;5110831;28;20217;-66
2021/03/17 03:39:16;;;;;;;14.93;11.63;;;;;;;3.93;59.36;93880.22;5111589;28;20275;-68
2021/03/17 03:41:43;;;;;;;13.10;10.07;;;;;;;3.80;60.20;93870.19;5110743;28;20269;-67
2021/03/17 03:44:09;;;;;;;13.70;11.48;;;;;;;3.83;60.09;93880.09;5111062;28;20239;-67
2021/03/17 03:46:36;;;;;;;14.23;11.40;;;;;;;3.77;60.14;93891.41;5110319;28;20637;-66
2021/03/17 03:49:05;;;;;;;15.82;12.18;;;;;;;3.62;60.52;93883.41;5110878;28;20234;-68
2021/03/17 03:51:33;;;;;;;14.70;10.43;;;;;;;3.66;60.32;93887.09;5110655;28;20178;-64
2021/03/17 03:54:15;;;;;;;16.27;10.85;;;;;;;3.74;59.91;93886.72;5111001;28;20198;-65
2021/03/17 03:56:52;;;;;;;14.80;12.07;;;;;;;3.69;60.08;93881.44;5111989;28;20190;-65
2021/03/17 03:59:23;;;;;;;16.50;11.30;;;;;;;3.60;59.64;93881.06;5118301;28;20209;-65
2021/03/17 04:01:59;;;;;;;14.23;11.50;;;;;;;3.86;59.49;93890.78;5111097;28;20675;-66
2021/03/17 04:04:32;;;;;;;16.55;11.75;;;;;;;3.72;59.71;93883.56;5110154;28;20211;-66
2021/03/17 04:07:02;;;;;;;15.65;12.40;;;;;;;3.93;58.91;93895.78;5110650;28;20237;-70
2021/03/17 04:09:46;;;;;;;15.32;11.68;;;;;;;3.85;59.01;93891.00;5110525;28;20324;-69
2021/03/17 04:12:15;;;;;;;16.10;12.10;;;;;;;3.48;59.64;93900.28;5111019;28;20538;-66
2021/03/17 04:14:48;;;;;;;12.68;10.15;;;;;;;3.57;59.29;93891.09;5110169;28;20198;-65
2021/03/17 04:17:37;;;;;;;14.00;11.60;;;;;;;3.90;58.92;93875.53;5110802;28;20604;-65
2021/03/17 04:20:07;;;;;;;13.15;11.15;;;;;;;3.93;58.44;93885.41;5110290;28;20239;-68
2021/03/17 04:22:36;;;;;;;13.23;11.05;;;;;;;3.83;58.33;93880.09;5110409;28;20186;-64
2021/03/17 04:25:06;;;;;;;14.93;11.57;;;;;;;3.82;58.51;93891.47;5110326;28;20206;-69
2021/03/17 04:27:34;;;;;;;13.73;11.38;;;;;;;3.82;58.58;93878.50;5109187;28;20672;-64
2021/03/17 04:30:05;;;;;;;13.10;9.63;;;;;;;3.61;58.52;93889.63;5110075;28;20221;-65
2021/03/17 04:32:33;;;;;;;14.32;11.07;;;;;;;3.55;58.90;93877.59;5110333;28;20212;-66
2021/03/17 04:35:01;;;;;;;15.48;11.40;;;;;;;3.61;58.84;93887.03;5109965;28;20199;-66
2021/03/17 04:37:30;;;;;;;15.23;10.13;;;;;;;3.72;58.13;93878.38;5112070;28;20202;-67
2021/03/17 04:39:59;;;;;;;15.80;12.95;;;;;;;3.86;57.74;93884.78;5114387;28;20179;-68
2021/03/17 04:42:26;;;;;;;15.10;12.35;;;;;;;3.77;57.94;93891.41;5114308;28;20258;-67
2021/03/17 04:44:53;;;;;;;16.77;12.77;;;;;;;3.77;57.75;93888.81;5112536;28;20187;-65
2021/03/17 04:47:20;;;;;;;17.85;11.88;;;;;;;3.67;57.58;93891.25;5114292;28;20183;-66
2021/03/17 04:49:49;;;;;;;18.10;12.57;;;;;;;3.82;56.83;93883.69;5113115;28;20290;-65
2021/03/17 04:52:19;;;;;;;15.80;11.45;;;;;;;3.58;56.94;93892.66;5110596;28;20558;-66
2021/03/17 04:54:46;;;;;;;16.05;12.40;;;;;;;3.67;56.69;93886.84;5113390;28;20197;-65
2021/03/17 04:57:18;;;;;;;17.58;13.52;;;;;;;3.90;56.84;93889.28;5113882;28;20216;-66
2021/03/17 04:59:46;;;;;;;16.58;12.13;;;;;;;3.70;56.85;93886.41;5113751;28;20207;-65
2021/03/17 05:02:16;;;;;;;18.10;13.13;;;;;;;3.86;56.51;93890.78;5113808;28;20195;-66
2021/03/17 05:04:45;;;;;;;17.65;14.10;;;;;;;3.97;56.20;93896.88;5112934;27;20259;-66
2021/03/17 05:07:13;;;;;;;18.15;13.45;;;;;;;4.02;56.27;93907.28;5113038;28;20242;-66
2021/03/17 05:09:41;;;;;;;16.45;12.77;;;;;;;3.97;56.27;93904.66;5113465;28;20313;-69
2021/03/17 05:12:08;;;;;;;15.95;13.10;;;;;;;3.81;56.29;93902.88;5112553;28;20236;-66
2021/03/17 05:14:35;;;;;;;15.85;12.60;;;;;;;3.77;56.45;93906.94;5113281;28;20191;-66
2021/03/17 05:17:04;;;;;;;16.17;12.73;;;;;;;3.74;56.25;93899.66;5113358;28;20206;-63
2021/03/17 05:19:32;;;;;;;19.00;14.55;;;;;;;3.85;56.06;93902.13;5112969;28;20202;-65
2021/03/17 05:22:00;;;;;;;19.08;14.10;;;;;;;3.81;56.38;93902.88;5113556;28;20274;-65
2021/03/17 05:24:28;;;;;;;17.45;12.27;;;;;;;3.89;56.04;93905.03;5111508;28;20201;-63
2021/03/17 05:26:55;;;;;;;16.55;10.70;;;;;;;3.68;56.02;93908.38;5116354;28;20264;-67
2021/03/17 05:29:24;;;;;;;16.33;12.43;;;;;;;3.70;56.31;93916.69;5115214;27;20350;-67
2021/03/17 05:31:53;;;;;;;12.13;10.07;;;;;;;3.36;56.58;93897.00;5113631;28;20202;-64
2021/03/17 05:34:20;;;;;;;17.60;13.48;;;;;;;3.69;55.77;93915.91;5112543;28;20209;-66
2021/03/17 05:36:47;;;;;;;18.73;14.00;;;;;;;3.74;55.86;93915.97;5111913;28;20206;-67
2021/03/17 05:39:15;;;;;;;17.00;13.48;;;;;;;3.97;55.53;93917.59;5112712;28;20210;-69
2021/03/17 05:41:42;;;;;;;15.02;11.43;;;;;;;3.77;55.63;93906.94;5112116;28;20194;-64
2021/03/17 05:44:10;;;;;;;16.75;12.90;;;;;;;3.88;55.92;93926.81;5113318;28;20739;-69
2021/03/17 05:46:37;;;;;;;17.20;12.65;;;;;;;3.93;55.43;93917.28;5112602;28;20198;-67
2021/03/17 05:49:04;;;;;;;14.20;10.50;;;;;;;3.79;55.77;93928.22;5111752;28;20569;-64
2021/03/17 05:51:32;;;;;;;16.08;10.57;;;;;;;3.78;55.49;93930.03;5111815;28;20209;-63
2021/03/17 05:53:59;;;;;;;31.48;20.55;;;;;;;3.95;56.19;93911.88;5111615;28;20194;-67
2021/03/17 05:56:25;;;;;;;25.40;16.52;;;;;;;4.32;54.85;93910.31;5111104;28;20206;-66
2021/03/17 05:58:53;;;;;;;27.67;18.08;;;;;;;4.59;55.15;93905.97;5112806;28;20194;-65
2021/03/17 06:01:20;;;;;;;14.30;11.68;;;;;;;3.95;55.00;93914.47;5112207;28;20613;-66
2021/03/17 06:03:48;;;;;;;15.63;12.85;;;;;;;4.34;54.76;93916.03;5112622;28;20626;-65
2021/03/17 06:06:18;;;;;;;17.42;11.82;;;;;;;4.18;54.35;93929.81;5111445;28;20675;-68
2021/03/17 06:08:47;;;;;;;18.02;12.15;;;;;;;3.99;55.32;93931.09;5112309;28;20187;-67
2021/03/17 06:11:15;;;;;;;16.05;12.25;;;;;;;4.06;55.23;93939.50;5112478;28;20201;-66
2021/03/17 06:13:50;;;;;;;17.88;12.02;;;;;;;3.97;54.97;93933.16;5112289;28;20194;-66
2021/03/17 06:16:21;;;;;;;15.25;11.98;;;;;;;4.06;54.90;93921.34;5111766;28;20197;-65
2021/03/17 06:18:55;;;;;;;16.63;11.38;;;;;;;4.26;54.29;93942.38;5112165;28;20206;-66
2021/03/17 06:21:22;;;;;;;18.25;13.05;;;;;;;4.04;54.29;93942.34;5111509;28;20552;-64
2021/03/17 06:23:50;;;;;;;16.00;10.93;;;;;;;3.97;54.81;93938.34;5112111;28;20190;-63
2021/03/17 06:26:18;;;;;;;17.77;13.05;;;;;;;4.35;54.52;93935.75;5111397;28;20613;-64
2021/03/17 06:28:45;;;;;;;17.05;12.20;;;;;;;4.45;54.01;93935.88;5111773;28;20582;-66
2021/03/17 06:31:19;;;;;;;17.75;12.48;;;;;;;4.27;54.55;93936.16;5111651;28;20573;-66
2021/03/17 06:33:45;;;;;;;21.67;13.93;;;;;;;4.09;54.81;93944.19;5110861;28;20656;-64
2021/03/17 06:36:23;;;;;;;16.35;12.23;;;;;;;4.03;55.29;93947.75;5109934;28;20652;-65
2021/03/17 06:39:02;;;;;;;17.13;12.95;;;;;;;4.30;54.57;93940.88;5112606;28;20685;-63
2021/03/17 06:41:41;;;;;;;15.18;10.57;;;;;;;4.15;54.80;93943.25;5111518;28;20201;-65
2021/03/17 06:44:08;;;;;;;18.00;11.77;;;;;;;4.21;54.13;93939.72;5112186;28;20215;-67
2021/03/17 06:46:35;;;;;;;16.60;12.40;;;;;;;4.17;54.36;93938.63;5111879;28;20193;-67
2021/03/17 06:49:04;;;;;;;14.70;11.38;;;;;;;4.18;54.05;93935.00;5110816;28;20571;-63
2021/03/17 06:51:32;;;;;;;15.00;10.35;;;;;;;4.06;54.32;93932.50;5111601;27;20202;-63
2021/03/17 06:54:03;;;;;;;15.68;12.20;;;;;;;4.21;53.78;93928.56;5112094;28;20988;-62
2021/03/17 06:56:35;;;;;;;16.42;12.30;;;;;;;4.44;53.53;93933.50;5112696;28;20699;-64
2021/03/17 06:59:02;;;;;;;13.98;11.05;;;;;;;4.39;54.05;93939.44;5111873;28;20194;-66
2021/03/17 07:01:36;;;;;;;13.15;10.57;;;;;;;4.25;53.85;93940.81;5110628;28;20187;-64
2021/03/17 07:04:18;;;;;;;14.73;11.10;;;;;;;4.35;53.71;93930.56;5112221;28;20210;-64
2021/03/17 07:06:49;;;;;;;17.33;11.88;;;;;;;4.50;53.49;93943.72;5111060;28;20237;-66
2021/03/17 07:09:26;;;;;;;14.13;8.18;;;;;;;4.17;53.76;93946.41;5111412;28;20715;-64
2021/03/17 07:12:05;;;;;;;14.30;10.70;;;;;;;4.26;54.19;93939.78;5111509;28;20263;-65
2021/03/17 07:14:44;;;;;;;17.25;10.93;;;;;;;4.53;53.76;93930.25;5111131;28;20316;-65
2021/03/17 07:17:28;;;;;;;13.32;9.20;;;;;;;4.28;53.82;93929.94;5111711;28;20229;-63
2021/03/17 07:19:55;;;;;;;13.68;10.73;;;;;;;4.53;53.30;93938.03;5111003;28;20623;-65
2021/03/17 07:22:23;;;;;;;13.88;9.65;;;;;;;4.35;53.86;93940.94;5111561;28;20194;-63
2021/03/17 07:25:01;;;;;;;13.98;11.20;;;;;;;4.51;53.44;93934.91;5110775;28;20222;-68
2021/03/17 07:27:30;;;;;;;17.13;12.07;;;;;;;4.67;53.18;93949.63;5111311;28;20205;-68
2021/03/17 07:30:00;;;;;;;16.15;10.52;;;;;;;4.38;53.66;93939.69;5111169;28;20254;-66
2021/03/17 07:32:59;;;;;;;12.90;10.52;;;;;;;4.34;53.98;93934.19;5111486;28;20660;-65
2021/03/17 07:35:31;;;;;;;13.73;9.15;;;;;;;3.96;54.37;93921.19;5111630;28;20290;-64
2021/03/17 07:38:12;;;;;;;16.10;9.93;;;;;;;4.23;53.85;93939.47;5112646;28;20202;-65
2021/03/17 07:40:44;;;;;;;15.55;10.18;;;;;;;4.25;53.84;93940.81;5112140;28;20198;-66
2021/03/17 07:43:13;;;;;;;15.00;8.70;;;;;;;4.04;54.27;93941.53;5113336;28;20210;-66
2021/03/17 07:45:41;;;;;;;11.57;8.65;;;;;;;4.27;54.26;93943.91;5111235;28;20353;-63
2021/03/17 07:48:11;;;;;;;13.25;10.05;;;;;;;4.18;54.55;93955.72;5111128;28;20199;-65
2021/03/17 07:50:40;;;;;;;15.55;10.13;;;;;;;4.39;54.09;93952.41;5110394;28;20230;-66
2021/03/17 07:53:16;;;;;;;12.18;9.65;;;;;;;4.30;54.19;93940.88;5110673;28;20193;-65
2021/03/17 07:55:45;;;;;;;14.82;11.50;;;;;;;4.56;54.24;93952.34;5110840;28;20212;-66
2021/03/17 07:58:14;;;;;;;13.70;11.23;;;;;;;4.41;53.86;93955.53;5110906;28;20556;-64
2021/03/17 08:00:42;;;;;;;13.98;9.98;;;;;;;4.33;54.25;93960.34;5110682;28;20197;-63
2021/03/17 08:03:13;;;;;;;14.80;10.70;;;;;;;4.44;54.07;93968.00;5111470;28;20726;-62
2021/03/17 08:05:41;;;;;;;12.27;9.15;;;;;;;4.07;54.59;93959.19;5110447;28;20205;-67
2021/03/17 08:08:08;;;;;;;12.60;8.93;;;;;;;4.12;54.92;93967.06;5111114;28;20190;-64
2021/03/17 08:10:39;;;;;;;13.50;10.02;;;;;;;4.41;54.50;93952.94;5110165;28;20267;-66
2021/03/17 08:13:07;;;;;;;13.52;10.23;;;;;;;4.38;54.56;93937.84;5110496;28;20186;-64
2021/03/17 08:15:34;;;;;;;13.48;10.43;;;;;;;4.16;54.75;93926.66;5110352;28;20275;-66
2021/03/17 08:18:00;;;;;;;12.98;8.40;;;;;;;4.43;54.31;93937.94;5110618;28;20183;-63
2021/03/17 08:20:28;;;;;;;13.32;9.80;;;;;;;4.33;54.71;93948.16;5110749;28;20564;-64
2021/03/17 08:22:58;;;;;;;16.10;10.10;;;;;;;4.14;54.78;93949.47;5110645;28;20563;-65
2021/03/17 08:25:35;;;;;;;16.23;10.25;;;;;;;4.60;54.33;93959.41;5111211;28;20297;-68
2021/03/17 08:28:23;;;;;;;13.13;9.77;;;;;;;4.65;54.10;93956.84;5111777;28;20656;-64
2021/03/17 08:30:52;;;;;;;12.35;9.07;;;;;;;4.75;54.07;93957.00;5109959;28;20688;-68
2021/03/17 08:33:39;;;;;;;12.98;9.40;;;;;;;4.33;54.50;93953.34;5110682;28;20310;-66
2021/03/17 08:36:08;;;;;;;11.10;9.25;;;;;;;4.42;54.41;93946.72;5110209;28;20207;-67
2021/03/17 08:38:56;;;;;;;12.02;9.75;;;;;;;4.50;54.07;93959.28;5110364;28;20281;-65
2021/03/17 08:41:42;;;;;;;11.45;8.40;;;;;;;4.34;54.45;93975.69;5109845;28;20289;-66
2021/03/17 08:44:20;;;;;;;11.27;7.82;;;;;;;4.43;54.46;93956.09;5110225;28;20194;-65
2021/03/17 08:46:50;;;;;;;11.55;8.88;;;;;;;4.32;54.97;93951.78;5110118;28;20192;-65
2021/03/17 08:49:36;;;;;;;11.18;8.60;;;;;;;4.29;54.20;93970.41;5110339;28;20276;-64
2021/03/17 08:52:06;;;;;;;9.50;7.43;;;;;;;4.44;54.75;93960.22;5110281;28;20198;-65
2021/03/17 08:54:33;;;;;;;9.52;7.00;;;;;;;4.35;54.23;93977.22;5109542;28;20220;-67
2021/03/17 08:57:29;;;;;;;12.45;9.15;;;;;;;4.47;54.51;93964.94;5110230;28;20183;-62
2021/03/17 09:00:05;;;;;;;10.98;8.07;;;;;;;4.59;54.27;93968.22;5093621;28;20659;-65
2021/03/17 09:02:31;;;;;;;12.00;8.82;;;;;;;4.61;54.68;93955.78;5110265;28;20201;-67
2021/03/17 09:05:02;;;;;;;11.27;9.07;;;;;;;4.66;54.37;93960.25;5109877;28;20654;-65
2021/03/17 09:07:30;;;;;;;12.05;7.93;;;;;;;4.46;54.50;93953.00;5110086;28;20253;-63
2021/03/17 09:10:13;;;;;;;10.18;6.82;;;;;;;4.42;54.17;93951.91;5109766;28;20230;-63
2021/03/17 09:12:43;;;;;;;13.80;9.73;;;;;;;4.71;54.07;93961.09;5110267;28;20210;-64
2021/03/17 09:15:17;;;;;;;11.80;8.65;;;;;;;4.60;53.76;93964.59;5109440;28;20186;-62
2021/03/17 09:17:48;;;;;;;13.65;9.82;;;;;;;4.52;54.53;93970.22;5109951;28;20252;-68
2021/03/17 09:20:30;;;;;;;12.23;7.68;;;;;;;4.23;55.60;93968.00;5109940;28;20190;-65
2021/03/17 09:22:57;;;;;;;12.43;9.75;;;;;;;4.60;54.91;93969.78;5110044;28;20203;-68
2021/03/17 09:25:32;;;;;;;13.45;10.50;;;;;;;4.23;55.17;93978.34;5113347;28;20641;-66
2021/03/17 09:28:05;;;;;;;12.60;10.18;;;;;;;4.56;54.75;93968.69;5113710;28;20212;-66
2021/03/17 09:30:36;;;;;;;12.65;9.88;;;;;;;4.68;54.59;93956.38;5113126;28;20214;-65
2021/03/17 09:33:08;;;;;;;25.67;17.45;;;;;;;4.58;55.51;93977.00;5114009;28;20616;-67
2021/03/17 09:35:36;;;;;;;13.20;10.43;;;;;;;4.60;55.70;93972.38;5113167;28;20226;-64
2021/03/17 09:38:06;;;;;;;16.13;9.43;;;;;;;4.48;55.78;93978.69;5114295;28;20273;-65
2021/03/17 09:40:48;;;;;;;12.70;8.75;;;;;;;4.05;57.13;93985.34;5113099;28;20194;-64
2021/03/17 09:43:26;;;;;;;13.75;9.48;;;;;;;3.97;58.01;93979.81;5112260;28;20281;-65
2021/03/17 09:45:53;;;;;;;11.70;9.13;;;;;;;3.88;58.46;93996.75;5113174;28;20198;-66
2021/03/17 09:48:20;;;;;;;15.30;11.30;;;;;;;3.71;58.99;93973.44;5113701;28;21118;-67
2021/03/17 09:50:56;;;;;;;15.30;11.07;;;;;;;3.72;59.77;93993.13;5112971;28;20695;-64
2021/03/17 09:53:23;;;;;;;16.60;12.60;;;;;;;3.79;59.90;93990.41;5113617;28;20551;-64
2021/03/17 09:55:50;;;;;;;18.98;12.90;;;;;;;4.00;59.50;93992.28;5114592;28;20690;-63
2021/03/17 09:58:17;;;;;;;13.55;10.45;;;;;;;4.13;58.83;93994.53;5113588;28;20179;-64
2021/03/17 10:00:47;;;;;;;15.85;10.75;;;;;;;3.81;58.99;93996.13;5112368;28;20191;-64
2021/03/17 10:03:15;;;;;;;18.45;12.32;;;;;;;3.81;59.91;93980.59;5112996;28;20194;-64
2021/03/17 10:05:42;;;;;;;17.63;12.98;;;;;;;4.25;59.62;93987.47;5111954;28;20226;-63
2021/03/17 10:08:09;;;;;;;15.07;12.13;;;;;;;4.06;59.38;94001.69;5112869;28;20194;-65
2021/03/17 10:10:37;;;;;;;14.73;11.30;;;;;;;4.12;58.86;93998.94;5112178;28;20245;-65
2021/03/17 10:13:04;;;;;;;15.95;11.23;;;;;;;4.07;58.76;94004.06;5112707;28;20635;-65
2021/03/17 10:15:30;;;;;;;16.70;12.35;;;;;;;4.10;58.61;94003.59;5111888;28;20205;-65
2021/03/17 10:17:58;;;;;;;17.27;11.43;;;;;;;4.06;58.78;94009.47;5112770;28;20656;-64
2021/03/17 10:20:27;;;;;;;40.75;22.15;;;;;;;3.85;58.90;93999.84;5111876;28;20194;-64
2021/03/17 10:23:00;;;;;;;13.75;9.57;;;;;;;4.01;58.65;94001.63;5112529;28;20204;-65
2021/03/17 10:25:29;;;;;;;16.13;9.75;;;;;;;3.99;59.02;93988.91;5112374;28;20277;-66
2021/03/17 10:28:05;;;;;;;13.63;9.35;;;;;;;3.80;58.98;94010.09;5112875;28;20198;-63
2021/03/17 10:30:40;;;;;;;14.57;11.57;;;;;;;4.06;59.38;94005.09;5110464;28;20278;-63
2021/03/17 10:33:12;;;;;;;15.63;11.68;;;;;;;4.16;59.03;94008.84;5112236;28;20221;-65
2021/03/17 10:35:39;;;;;;;14.63;11.27;;;;;;;4.38;58.49;94002.69;5111824;28;20272;-65
2021/03/17 10:38:07;;;;;;;13.57;9.95;;;;;;;4.42;57.85;94014.16;5111210;28;20191;-62
2021/03/17 10:40:36;;;;;;;14.20;11.32;;;;;;;4.19;58.51;94009.16;5112139;28;20198;-63
2021/03/17 10:43:11;;;;;;;14.45;10.32;;;;;;;4.07;58.17;94011.03;5112073;28;20187;-64
2021/03/17 10:45:52;;;;;;;13.93;10.57;;;;;;;3.98;58.41;94013.25;5111427;28;20194;-64
2021/03/17 10:48:22;;;;;;;14.25;10.98;;;;;;;4.21;58.45;94008.91;5112270;28;20201;-65
2021/03/17 10:50:50;;;;;;;15.02;11.48;;;;;;;4.07;58.76;94011.03;5111806;28;20253;-65
2021/03/17 10:53:22;;;;;;;14.93;11.85;;;;;;;4.42;58.66;94003.78;5111949;27;20229;-65
2021/03/17 10:55:51;;;;;;;13.13;10.02;;;;;;;4.42;58.33;93998.59;5111699;28;20190;-65
2021/03/17 10:58:39;;;;;;;13.50;10.70;;;;;;;4.43;58.45;94007.97;5112344;28;20197;-64
2021/03/17 11:01:06;;;;;;;13.82;10.65;;;;;;;4.59;58.47;94004.53;5111766;28;20199;-65
2021/03/17 11:03:39;;;;;;;17.08;12.10;;;;;;;4.72;58.54;93999.00;5112214;28;20191;-65
2021/03/17 11:06:22;;;;;;;14.25;11.95;;;;;;;4.92;57.81;94009.63;5111168;28;20316;-66
2021/03/17 11:09:03;;;;;;;13.52;10.77;;;;;;;4.65;57.53;94013.94;5112284;28;20194;-65
2021/03/17 11:11:31;;;;;;;17.70;12.73;;;;;;;4.50;58.19;94011.16;5111240;28;21390;-66
2021/03/17 11:13:57;;;;;;;16.90;11.93;;;;;;;4.34;57.81;94018.97;5111694;28;20674;-65
2021/03/17 11:16:35;;;;;;;16.40;11.18;;;;;;;4.16;58.45;94020.00;5110699;28;20193;-66
2021/03/17 11:19:09;;;;;;;13.75;9.18;;;;;;;4.02;58.78;94011.75;5111396;28;20688;-64
2021/03/17 11:21:38;;;;;;;14.90;9.55;;;;;;;3.99;58.84;94009.66;5112145;28;20194;-62
2021/03/17 11:24:26;;;;;;;17.02;12.15;;;;;;;3.60;59.73;94017.53;5115380;28;20285;-62
2021/03/17 11:26:52;;;;;;;17.40;12.40;;;;;;;3.93;60.24;94027.94;5110996;28;20202;-63
2021/03/17 11:29:21;;;;;;;16.45;13.07;;;;;;;4.03;59.66;94022.91;5111456;28;22063;-64
2021/03/17 11:31:53;;;;;;;18.67;13.07;;;;;;;4.21;59.53;94016.69;5111322;28;20255;-66
2021/03/17 11:34:21;;;;;;;18.83;13.60;;;;;;;4.23;59.90;94019.84;5111151;28;20293;-66
2021/03/17 11:36:49;;;;;;;17.33;12.90;;;;;;;4.25;59.53;94008.22;5110430;28;20202;-64
2021/03/17 11:39:17;;;;;;;15.07;10.93;;;;;;;4.19;59.45;94019.53;5111425;28;20277;-63
2021/03/17 11:41:46;;;;;;;13.40;10.25;;;;;;;4.02;59.73;94013.56;5110938;28;20222;-63
2021/03/17 11:44:15;;;;;;;14.60;11.10;;;;;;;4.20;59.13;94023.69;5111145;28;20668;-64
2021/03/17 11:46:42;;;;;;;16.15;11.63;;;;;;;3.97;59.68;94016.88;5109942;28;20195;-65
2021/03/17 11:49:12;;;;;;;15.95;12.02;;;;;;;4.38;59.11;94007.88;5110882;28;20292;-65